createdAt,value
2019-06-08T00:00:42.744Z,4.75
2019-06-08T00:03:14.801Z,7.22
2019-06-08T00:05:45.577Z,4.03
2019-06-08T00:08:16.824Z,3.80
2019-06-08T00:10:47.961Z,6.15
2019-06-08T00:13:19.779Z,4.15
2019-06-08T00:15:50.787Z,4.45
2019-06-08T00:18:21.617Z,4.25
2019-06-08T00:20:52.656Z,6.47
2019-06-08T00:23:23.971Z,5.05
2019-06-08T00:25:54.812Z,11.85
2019-06-08T00:28:25.580Z,12.20
2019-06-08T00:30:56.399Z,24.50
2019-06-08T00:33:27.284Z,9.33
2019-06-08T00:35:58.186Z,12.80
2019-06-08T00:38:29.280Z,11.73
2019-06-08T00:41:00.181Z,7.75
2019-06-08T00:43:30.870Z,8.13
2019-06-08T00:46:01.809Z,8.50
2019-06-08T00:48:32.682Z,7.80
2019-06-08T00:51:03.654Z,5.92
2019-06-08T00:53:34.347Z,6.58
2019-06-08T00:56:05.218Z,11.38
2019-06-08T00:58:35.957Z,10.55
2019-06-08T01:01:07.327Z,14.58
2019-06-08T01:03:38.269Z,8.90
2019-06-08T01:06:09.147Z,11.30
2019-06-08T01:08:40.712Z,7.92
2019-06-08T01:11:11.768Z,6.42
2019-06-08T01:13:42.823Z,6.08
2019-06-08T01:16:13.725Z,7.08
2019-06-08T01:18:44.799Z,8.88
2019-06-08T01:21:15.950Z,16.10
2019-06-08T01:23:46.650Z,6.30
2019-06-08T01:26:17.516Z,6.60
2019-06-08T01:28:48.168Z,3.85
2019-06-08T01:31:20.261Z,4.35
2019-06-08T01:33:51.274Z,3.33
2019-06-08T01:36:22.792Z,3.52
2019-06-08T01:39:16.926Z,4.05
2019-06-08T01:41:47.660Z,4.95
2019-06-08T01:44:18.623Z,5.10
2019-06-08T01:46:49.384Z,3.83
2019-06-08T01:49:20.322Z,4.87
2019-06-08T01:51:51.692Z,5.37
2019-06-08T01:54:22.852Z,6.70
2019-06-08T01:56:54.186Z,5.50
2019-06-08T01:59:25.279Z,5.75
2019-06-08T02:01:56.299Z,3.08
2019-06-08T02:04:28.066Z,5.45
2019-06-08T02:07:18.426Z,3.40
2019-06-08T02:09:49.767Z,3.37
2019-06-08T02:12:20.811Z,3.67
2019-06-08T02:14:51.744Z,5.67
2019-06-08T02:17:22.763Z,4.90
2019-06-08T02:19:53.698Z,3.70
2019-06-08T02:22:24.587Z,2.72
2019-06-08T02:24:55.809Z,4.40
2019-06-08T02:27:27.357Z,6.85
2019-06-08T02:29:58.208Z,3.45
2019-06-08T02:32:31.600Z,4.40
2019-06-08T02:35:01.465Z,3.80
2019-06-08T02:37:33.082Z,5.40
2019-06-08T02:40:04.266Z,4.15
2019-06-08T02:42:36.965Z,3.85
2019-06-08T02:45:09.101Z,4.53
2019-06-08T02:47:41.203Z,4.37
2019-06-08T02:50:12.647Z,4.15
2019-06-08T02:52:45.130Z,5.12
2019-06-08T02:55:16.154Z,4.42
2019-06-08T02:57:47.373Z,5.03
2019-06-08T03:00:18.777Z,5.15
2019-06-08T03:02:51.450Z,4.53
2019-06-08T03:05:22.468Z,3.52
2019-06-08T03:07:54.604Z,2.70
2019-06-08T03:10:25.623Z,3.37
2019-06-08T03:12:58.015Z,8.63
2019-06-08T03:15:34.033Z,2.50
2019-06-08T03:18:04.049Z,5.55
2019-06-08T03:20:35.779Z,7.78
2019-06-08T03:23:06.816Z,4.17
2019-06-08T03:25:47.308Z,6.20
2019-06-08T03:28:10.256Z,3.33
2019-06-08T03:30:47.374Z,3.27
2019-06-08T03:33:13.435Z,3.77
2019-06-08T03:35:55.763Z,4.30
2019-06-08T03:38:16.610Z,2.40
2019-06-08T03:40:47.489Z,2.05
2019-06-08T03:43:18.496Z,2.22
2019-06-08T03:45:49.396Z,2.35
2019-06-08T03:48:21.039Z,4.65
2019-06-08T03:50:52.004Z,3.05
2019-06-08T03:53:22.954Z,4.33
2019-06-08T03:55:53.758Z,3.22
2019-06-08T03:58:24.349Z,1.95
2019-06-08T04:00:56.299Z,1.82
2019-06-08T04:03:27.600Z,1.92
2019-06-08T04:05:58.184Z,2.40
2019-06-08T04:08:29.029Z,7.45
2019-06-08T04:11:00.026Z,4.37
2019-06-08T04:13:30.898Z,7.53
2019-06-08T04:16:01.763Z,6.80
2019-06-08T04:18:32.491Z,3.70
2019-06-08T04:21:03.516Z,4.58
2019-06-08T04:23:34.465Z,3.80
2019-06-08T04:26:05.369Z,3.00
2019-06-08T04:28:36.271Z,4.58
2019-06-08T04:31:07.142Z,10.45
2019-06-08T04:33:37.971Z,5.58
2019-06-08T04:36:09.295Z,6.90
2019-06-08T04:38:41.306Z,2.55
2019-06-08T04:41:12.748Z,4.30
2019-06-08T04:43:45.080Z,3.50
2019-06-08T04:46:15.912Z,4.12
2019-06-08T04:48:47.916Z,2.62
2019-06-08T04:51:19.246Z,2.80
2019-06-08T04:53:50.148Z,2.90
2019-06-08T04:56:20.926Z,2.60
2019-06-08T04:58:51.856Z,3.52
2019-06-08T05:01:22.591Z,4.83
2019-06-08T05:03:53.707Z,2.50
2019-06-08T05:06:24.663Z,5.28
2019-06-08T05:08:55.726Z,6.03
2019-06-08T05:11:27.042Z,3.22
2019-06-08T05:13:58.497Z,4.03
2019-06-08T05:16:29.593Z,4.95
2019-06-08T05:19:00.612Z,2.00
2019-06-08T05:21:31.624Z,5.37
2019-06-08T05:24:03.575Z,2.60
2019-06-08T05:26:34.627Z,4.25
2019-06-08T05:29:05.428Z,3.62
2019-06-08T05:31:36.110Z,3.17
2019-06-08T05:34:07.151Z,4.20
2019-06-08T05:36:39.275Z,2.50
2019-06-08T05:39:10.977Z,5.00
2019-06-08T05:41:41.970Z,2.27
2019-06-08T05:44:15.361Z,3.25
2019-06-08T05:46:49.978Z,3.62
2019-06-08T05:49:21.738Z,2.02
2019-06-08T05:51:53.293Z,2.20
2019-06-08T05:54:25.097Z,3.77
2019-06-08T05:56:56.060Z,4.78
2019-06-08T05:59:27.663Z,2.40
2019-06-08T06:01:58.662Z,2.98
2019-06-08T06:04:30.054Z,2.90
2019-06-08T06:07:00.791Z,4.58
2019-06-08T06:09:31.711Z,2.50
2019-06-08T06:12:02.782Z,3.77
2019-06-08T06:14:36.937Z,1.80
2019-06-08T06:17:07.979Z,4.15
2019-06-08T06:19:38.975Z,2.52
2019-06-08T06:22:09.871Z,2.58
2019-06-08T06:24:41.732Z,3.02
2019-06-08T06:27:13.027Z,1.65
2019-06-08T06:29:45.458Z,4.85
2019-06-08T06:32:17.301Z,4.03
2019-06-08T06:34:48.298Z,1.50
2019-06-08T06:37:19.626Z,2.22
2019-06-08T06:39:52.100Z,4.95
2019-06-08T06:42:26.085Z,2.55
2019-06-08T06:44:58.196Z,2.95
2019-06-08T06:47:30.665Z,4.12
2019-06-08T06:50:01.566Z,1.32
2019-06-08T06:52:32.553Z,1.40
2019-06-08T06:55:03.368Z,2.77
2019-06-08T06:57:36.427Z,1.60
2019-06-08T07:00:08.855Z,1.52
2019-06-08T07:02:39.998Z,1.50
2019-06-08T07:05:11.192Z,2.50
2019-06-08T07:07:42.278Z,2.62
2019-06-08T07:10:13.568Z,1.42
2019-06-08T07:12:45.092Z,1.60
2019-06-08T07:15:18.456Z,3.22
2019-06-08T07:17:50.094Z,2.77
2019-06-08T07:20:21.263Z,3.35
2019-06-08T07:22:52.268Z,2.22
2019-06-08T07:25:23.341Z,4.17
2019-06-08T07:27:55.094Z,2.55
2019-06-08T07:30:29.194Z,1.57
2019-06-08T07:33:00.440Z,2.40
2019-06-08T07:35:31.233Z,4.15
2019-06-08T07:38:03.041Z,2.42
2019-06-08T07:40:34.264Z,2.17
2019-06-08T07:43:05.404Z,1.85
2019-06-08T07:45:36.692Z,3.83
2019-06-08T07:48:07.601Z,2.45
2019-06-08T07:50:38.554Z,1.45
2019-06-08T07:53:09.122Z,3.22
2019-06-08T07:55:39.952Z,2.55
2019-06-08T07:58:14.750Z,3.37
2019-06-08T08:00:47.135Z,1.25
2019-06-08T08:03:19.890Z,3.17
2019-06-08T08:05:53.566Z,4.30
2019-06-08T08:08:24.764Z,1.42
2019-06-08T08:10:58.893Z,1.37
2019-06-08T08:13:32.728Z,1.32
2019-06-08T08:16:05.053Z,2.02
2019-06-08T08:18:38.431Z,2.75
2019-06-08T08:21:21.254Z,4.80
2019-06-08T08:23:47.729Z,2.17
2019-06-08T08:26:19.550Z,2.10
2019-06-08T08:29:03.192Z,1.95
2019-06-08T08:31:41.272Z,2.75
2019-06-08T08:34:13.480Z,2.65
2019-06-08T08:36:48.092Z,1.57
2019-06-08T08:39:23.987Z,1.10
2019-06-08T08:41:58.301Z,1.77
2019-06-08T08:44:28.813Z,1.70
2019-06-08T08:47:03.960Z,3.92
2019-06-08T08:49:37.816Z,1.62
2019-06-08T08:52:11.547Z,2.52
2019-06-08T08:54:42.818Z,5.42
2019-06-08T08:57:14.052Z,2.27
2019-06-08T08:59:50.167Z,2.70
2019-06-08T09:02:21.249Z,2.98
2019-06-08T09:04:53.455Z,2.35
2019-06-08T09:07:24.863Z,3.27
2019-06-08T09:09:59.391Z,2.95
2019-06-08T09:12:29.186Z,3.27
2019-06-08T09:15:02.664Z,3.42
2019-06-08T09:17:35.049Z,2.70
2019-06-08T09:20:15.284Z,2.27
2019-06-08T09:22:53.834Z,3.72
2019-06-08T09:25:14.621Z,5.60
2019-06-08T09:27:47.930Z,3.85
2019-06-08T09:30:19.181Z,3.77
2019-06-08T09:32:49.936Z,7.85
2019-06-08T09:35:21.282Z,3.10
2019-06-08T09:37:53.342Z,3.87
2019-06-08T09:40:26.626Z,2.80
2019-06-08T09:43:05.362Z,4.50
2019-06-08T09:45:29.170Z,2.90
2019-06-08T09:48:03.956Z,2.60
2019-06-08T09:50:33.256Z,3.65
2019-06-08T09:53:20.025Z,3.85
2019-06-08T09:55:38.190Z,4.65
2019-06-08T09:58:11.718Z,3.90
2019-06-08T10:00:40.911Z,4.33
2019-06-08T10:03:13.606Z,2.62
2019-06-08T10:05:44.656Z,3.50
2019-06-08T10:08:19.975Z,2.25
2019-06-08T10:10:48.489Z,3.52
2019-06-08T10:13:19.506Z,1.77
2019-06-08T10:15:51.640Z,2.98
2019-06-08T10:18:22.493Z,2.77
2019-06-08T10:20:54.681Z,4.37
2019-06-08T10:23:33.437Z,4.70
2019-06-08T10:26:00.565Z,5.28
2019-06-08T10:28:30.033Z,5.10
2019-06-08T10:31:01.649Z,9.75
2019-06-08T10:33:33.059Z,4.53
2019-06-08T10:36:05.266Z,3.52
2019-06-08T10:38:40.906Z,3.85
2019-06-08T10:41:16.122Z,5.70
2019-06-08T10:43:40.507Z,2.55
2019-06-08T10:46:16.643Z,3.15
2019-06-08T10:48:43.638Z,4.10
2019-06-08T10:51:14.415Z,3.90
2019-06-08T10:53:50.095Z,4.00
2019-06-08T10:56:18.828Z,8.80
2019-06-08T10:58:50.887Z,2.95
2019-06-08T11:01:21.674Z,4.83
2019-06-08T11:03:52.547Z,5.92
2019-06-08T11:06:23.406Z,5.00
2019-06-08T11:08:54.126Z,4.80
2019-06-08T11:11:28.388Z,5.20
2019-06-08T11:14:00.074Z,3.58
2019-06-08T11:16:30.413Z,4.62
2019-06-08T11:19:02.653Z,5.92
2019-06-08T11:21:33.426Z,4.85
2019-06-08T11:24:15.092Z,4.58
2019-06-08T11:26:40.041Z,4.03
2019-06-08T11:29:11.573Z,5.28
2019-06-08T11:31:40.982Z,6.40
2019-06-08T11:34:12.009Z,5.62
2019-06-08T11:36:42.977Z,5.28
2019-06-08T11:39:13.898Z,6.62
2019-06-08T11:41:44.733Z,6.90
2019-06-08T11:44:17.765Z,7.03
2019-06-08T11:46:47.920Z,6.28
2019-06-08T11:49:18.875Z,9.43
2019-06-08T11:51:49.806Z,6.30
2019-06-08T11:54:32.880Z,8.55
2019-06-08T11:56:57.379Z,8.63
2019-06-08T11:59:28.521Z,8.55
2019-06-08T12:01:59.495Z,9.70
2019-06-08T12:04:30.369Z,8.85
2019-06-08T12:07:02.078Z,10.25
2019-06-08T12:09:32.993Z,7.62
2019-06-08T12:12:04.526Z,8.68
2019-06-08T12:14:37.693Z,8.10
2019-06-08T12:17:10.868Z,10.40
2019-06-08T12:19:39.625Z,7.62
2019-06-08T12:22:11.932Z,10.53
2019-06-08T12:24:42.772Z,12.15
2019-06-08T12:27:23.779Z,10.25
2019-06-08T12:29:48.344Z,8.80
2019-06-08T12:32:18.408Z,6.58
2019-06-08T12:34:49.492Z,5.67
2019-06-08T12:37:22.315Z,6.80
2019-06-08T12:39:52.426Z,5.80
2019-06-08T12:42:24.998Z,7.45
2019-06-08T12:44:55.572Z,7.75
2019-06-08T12:47:29.723Z,7.12
2019-06-08T12:49:58.655Z,7.95
2019-06-08T12:52:29.819Z,8.35
2019-06-08T12:55:06.907Z,6.62
2019-06-08T12:57:33.051Z,8.38
2019-06-08T13:00:04.004Z,8.38
2019-06-08T13:02:34.927Z,7.58
2019-06-08T13:05:10.679Z,8.70
2019-06-08T13:07:39.789Z,7.95
2019-06-08T13:10:10.982Z,9.25
2019-06-08T13:12:41.837Z,10.53
2019-06-08T13:15:12.942Z,9.10
2019-06-08T13:17:43.896Z,8.98
2019-06-08T13:20:20.532Z,8.15
2019-06-08T13:22:49.992Z,6.10
2019-06-08T13:25:36.346Z,7.90
2019-06-08T13:27:53.053Z,8.83
2019-06-08T13:30:26.151Z,8.58
2019-06-08T13:32:58.101Z,6.90
2019-06-08T13:35:30.672Z,8.75
2019-06-08T13:38:00.854Z,7.90
2019-06-08T13:40:31.787Z,8.28
2019-06-08T13:43:02.674Z,7.75
2019-06-08T13:45:33.523Z,9.28
2019-06-08T13:48:04.506Z,9.88
2019-06-08T13:50:35.616Z,9.55
2019-06-08T13:53:10.564Z,8.55
2019-06-08T13:55:49.733Z,10.88
2019-06-08T13:58:11.147Z,9.75
2019-06-08T14:00:42.101Z,9.48
2019-06-08T14:03:13.646Z,9.50
2019-06-08T14:05:44.436Z,10.08
2019-06-08T14:08:16.396Z,12.18
2019-06-08T14:10:49.536Z,10.95
2019-06-08T14:13:27.036Z,13.08
2019-06-08T14:15:52.576Z,11.57
2019-06-08T14:18:27.398Z,11.15
2019-06-08T14:20:58.087Z,9.98
2019-06-08T14:23:27.462Z,10.70
2019-06-08T14:26:00.192Z,11.18
2019-06-08T14:28:30.590Z,9.90
2019-06-08T14:31:01.600Z,10.00
2019-06-08T14:33:33.767Z,6.42
2019-06-08T14:36:04.440Z,8.40
2019-06-08T14:38:39.255Z,9.83
2019-06-08T14:41:07.767Z,8.50
2019-06-08T14:43:38.703Z,8.48
2019-06-08T14:46:09.640Z,9.60
2019-06-08T14:48:40.362Z,14.28
2019-06-08T14:51:11.229Z,11.73
2019-06-08T14:53:41.881Z,12.10
2019-06-08T14:56:12.839Z,13.05
2019-06-08T14:58:43.595Z,12.55
2019-06-08T15:01:17.565Z,15.13
2019-06-08T15:03:48.190Z,11.28
2019-06-08T15:06:19.377Z,11.30
2019-06-08T15:08:51.860Z,9.50
2019-06-08T15:11:23.360Z,10.45
2019-06-08T15:13:54.431Z,11.08
2019-06-08T15:16:25.824Z,13.43
2019-06-08T15:19:00.114Z,9.68
2019-06-08T15:21:32.674Z,10.72
2019-06-08T15:24:01.923Z,15.00
2019-06-08T15:26:42.324Z,12.98
2019-06-08T15:29:07.387Z,8.45
2019-06-08T15:31:39.038Z,9.65
2019-06-08T15:34:10.773Z,12.45
2019-06-08T15:36:41.818Z,11.05
2019-06-08T15:39:12.660Z,11.55
2019-06-08T15:41:43.791Z,10.08
2019-06-08T15:44:17.796Z,11.18
2019-06-08T15:46:47.671Z,11.93
2019-06-08T15:49:18.870Z,9.13
2019-06-08T15:51:49.837Z,14.10
2019-06-08T15:54:20.644Z,9.65
2019-06-08T15:56:52.199Z,11.93
2019-06-08T15:59:23.283Z,9.50
2019-06-08T16:01:54.213Z,9.58
2019-06-08T16:04:25.720Z,15.05
2019-06-08T16:06:56.765Z,10.88
2019-06-08T16:09:28.058Z,9.80
2019-06-08T16:11:59.581Z,13.40
2019-06-08T16:14:31.013Z,10.00
2019-06-08T16:17:01.914Z,9.45
2019-06-08T16:19:33.693Z,8.80
2019-06-08T16:22:04.762Z,9.13
2019-06-08T16:24:36.294Z,8.23
2019-06-08T16:27:07.408Z,8.30
2019-06-08T16:29:39.159Z,7.92
2019-06-08T16:32:10.166Z,10.45
2019-06-08T16:34:40.912Z,12.88
2019-06-08T16:37:11.829Z,12.88
2019-06-08T16:39:42.843Z,11.25
2019-06-08T16:42:13.756Z,9.48
2019-06-08T16:44:44.675Z,7.42
2019-06-08T16:47:15.361Z,12.47
2019-06-08T16:49:46.108Z,9.55
2019-06-08T16:52:17.353Z,9.80
2019-06-08T16:54:48.306Z,9.73
2019-06-08T16:57:19.147Z,12.15
2019-06-08T16:59:50.579Z,13.80
2019-06-08T17:02:21.416Z,7.75
2019-06-08T17:04:52.279Z,8.93
2019-06-08T17:07:23.021Z,8.03
2019-06-08T17:09:53.816Z,6.33
2019-06-08T17:12:24.767Z,8.23
2019-06-08T17:14:55.329Z,9.28
2019-06-08T17:17:26.171Z,9.13
2019-06-08T17:19:57.116Z,8.78
2019-06-08T17:22:28.071Z,6.30
2019-06-08T17:24:58.963Z,7.75
2019-06-08T17:27:30.368Z,8.08
2019-06-08T17:30:08.013Z,4.25
2019-06-08T17:32:33.923Z,4.75
2019-06-08T17:35:06.074Z,6.33
2019-06-08T17:37:38.022Z,5.47
2019-06-08T17:40:09.481Z,5.40
2019-06-08T17:42:41.584Z,5.45
2019-06-08T17:45:13.524Z,6.42
2019-06-08T17:47:44.653Z,7.60
2019-06-08T17:50:16.111Z,7.72
2019-06-08T17:52:47.042Z,6.70
2019-06-08T17:55:17.928Z,5.05
2019-06-08T17:57:53.496Z,7.20
2019-06-08T18:00:21.362Z,6.00
2019-06-08T18:02:52.433Z,5.95
2019-06-08T18:05:23.463Z,7.53
2019-06-08T18:07:54.413Z,5.50
2019-06-08T18:10:27.300Z,6.75
2019-06-08T18:12:58.736Z,5.65
2019-06-08T18:15:29.662Z,4.72
2019-06-08T18:18:00.351Z,4.60
2019-06-08T18:20:31.319Z,5.75
2019-06-08T18:23:02.131Z,6.70
2019-06-08T18:25:32.895Z,7.70
2019-06-08T18:28:10.341Z,6.65
2019-06-08T18:30:39.283Z,8.35
2019-06-08T18:33:08.353Z,6.40
2019-06-08T18:35:41.757Z,6.12
2019-06-08T18:38:11.910Z,5.75
2019-06-08T18:40:43.463Z,7.03
2019-06-08T18:43:16.943Z,5.78
2019-06-08T18:45:48.431Z,6.42
2019-06-08T18:48:19.559Z,6.22
2019-06-08T18:50:50.701Z,6.33
2019-06-08T18:53:21.478Z,4.03
2019-06-08T18:55:52.046Z,4.05
2019-06-08T18:58:25.114Z,3.50
2019-06-08T19:00:57.322Z,4.92
2019-06-08T19:03:28.279Z,5.33
2019-06-08T19:05:59.641Z,4.03
2019-06-08T19:08:30.697Z,3.33
2019-06-08T19:11:01.479Z,4.25
2019-06-08T19:13:32.459Z,4.25
2019-06-08T19:16:03.251Z,5.78
2019-06-08T19:18:34.157Z,4.92
2019-06-08T19:21:07.598Z,4.55
2019-06-08T19:23:39.007Z,3.90
2019-06-08T19:26:09.622Z,6.05
2019-06-08T19:28:45.028Z,4.22
2019-06-08T19:31:12.982Z,3.25
2019-06-08T19:33:43.798Z,4.60
2019-06-08T19:36:16.995Z,2.85
2019-06-08T19:38:54.253Z,6.10
2019-06-08T19:41:21.838Z,3.77
2019-06-08T19:43:54.495Z,4.10
2019-06-08T19:46:26.997Z,3.72
2019-06-08T19:48:59.028Z,3.80
2019-06-08T19:51:29.308Z,3.62
2019-06-08T19:54:00.424Z,3.80
2019-06-08T19:56:31.505Z,3.92
2019-06-08T19:59:05.219Z,4.40
2019-06-08T20:01:34.456Z,3.98
2019-06-08T20:04:07.317Z,4.03
2019-06-08T20:06:38.029Z,3.40
2019-06-08T20:09:10.398Z,4.70
2019-06-08T20:11:45.083Z,3.72
2019-06-08T20:14:13.203Z,4.33
2019-06-08T20:16:44.708Z,4.62
2019-06-08T20:19:17.598Z,3.20
2019-06-08T20:21:51.306Z,5.05
2019-06-08T20:24:20.192Z,4.17
2019-06-08T20:26:53.372Z,3.98
2019-06-08T20:29:23.177Z,5.47
2019-06-08T20:31:54.013Z,3.08
2019-06-08T20:34:27.058Z,7.08
2019-06-08T20:36:59.275Z,3.85
2019-06-08T20:39:29.653Z,4.65
2019-06-08T20:42:00.644Z,4.25
2019-06-08T20:44:31.621Z,5.03
2019-06-08T20:47:02.421Z,5.33
2019-06-08T20:49:33.080Z,6.08
2019-06-08T20:52:03.694Z,4.97
2019-06-08T20:54:36.710Z,3.00
2019-06-08T20:57:07.608Z,4.37
2019-06-08T20:59:40.039Z,4.30
2019-06-08T21:02:11.081Z,4.47
2019-06-08T21:04:42.160Z,3.72
2019-06-08T21:07:13.218Z,4.67
2019-06-08T21:09:44.862Z,5.00
2019-06-08T21:12:17.791Z,4.70
2019-06-08T21:14:50.787Z,3.85
2019-06-08T21:17:21.483Z,5.03
2019-06-08T21:19:53.092Z,4.12
2019-06-08T21:22:24.245Z,3.40
2019-06-08T22:58:11.026Z,4.40
2019-06-08T23:00:52.329Z,4.85
2019-06-08T23:03:14.061Z,5.20
2019-06-08T23:05:47.689Z,6.35
2019-06-08T23:08:18.803Z,4.33
2019-06-08T23:10:49.710Z,5.85
2019-06-08T23:13:20.427Z,9.00
2019-06-08T23:15:51.312Z,5.33
2019-06-08T23:18:22.150Z,5.35
2019-06-08T23:20:52.959Z,5.47
2019-06-08T23:23:23.848Z,4.80
2019-06-08T23:25:55.630Z,8.40
2019-06-08T23:28:28.271Z,7.50
2019-06-08T23:31:10.725Z,6.60
2019-06-08T23:33:31.161Z,4.85
2019-06-08T23:36:33.661Z,7.08
2019-06-08T23:38:34.277Z,7.35
2019-06-08T23:41:05.561Z,6.03
2019-06-08T23:43:38.315Z,5.83
2019-06-08T23:46:08.702Z,6.67
2019-06-08T23:48:39.497Z,7.28
2019-06-08T23:51:11.061Z,6.65
2019-06-08T23:53:41.870Z,5.70
2019-06-08T23:56:12.633Z,6.60
2019-06-08T23:58:43.427Z,6.90
